Terminal Aerodrome Forecast
Issued by NWS Wilmington, NC

Home | Current Version | Previous Version | Text Only | Print | Product List | Glossary On
Versions: 1 2 3 4 5 6 7 8 9 10 11 12 13 14 15
411
FTUS42 KILM 281130
TAFLBT
TAF
KLBT 281130Z 2812/2912 15004KT P6SM SCT050 BKN100
      TEMPO 2812/2813 SCT006
     FM281500 19006KT P6SM VCSH SCT035 SCT100 BKN250
     FM281900 17006KT P6SM VCTS BKN050CB BKN100
     FM282200 16004KT P6SM SCT060 BKN100
     FM290300 17004KT 6SM -SHRA VCTS SCT045CB BKN080=

USA.gov is the U.S. government's official web portal to all federal, state and local government web resources and services.